Time;durP1;ratioP1;P1;durP2;ratioP2;P2;SDS_P1;SDS_P2;PMS_P1;PMS_P2;Temp;Humidity;BMP_temperature;BMP_pressure;BME280_temperature;BME280_humidity;BME280_pressure;Samples;Min_cycle;Max_cycle;Signal;HPM_P1;HPM_P2
2021/04/18 00:01:58;;;;;;;8.18;3.38;;;;;;;10.09;54.48;101950.91;5050458;28;20049;-46
2021/04/18 00:04:24;;;;;;;5.88;3.33;;;;;;;10.08;54.55;101943.75;5051537;28;20474;-47
2021/04/18 00:06:51;;;;;;;8.88;3.25;;;;;;;10.07;54.52;101942.94;5050219;28;20083;-48
2021/04/18 00:09:17;;;;;;;10.52;3.90;;;;;;;10.09;54.58;101945.38;5053712;28;20080;-45
2021/04/18 00:11:46;;;;;;;10.43;4.32;;;;;;;10.11;54.57;101945.91;5052091;28;20128;-47
2021/04/18 00:14:12;;;;;;;5.93;3.47;;;;;;;10.08;54.95;101944.59;5068079;28;20450;-50
2021/04/18 00:16:39;;;;;;;7.22;3.45;;;;;;;10.11;54.86;101949.47;5068770;28;20466;-46
2021/04/18 00:19:06;;;;;;;7.50;3.30;;;;;;;10.07;54.91;101944.88;5054491;28;20158;-47
2021/04/18 00:21:33;;;;;;;6.18;3.28;;;;;;;10.02;55.07;101936.69;5057411;28;20041;-48
2021/04/18 00:24:00;;;;;;;13.02;4.88;;;;;;;10.01;55.14;101935.06;5064666;28;20049;-47
2021/04/18 00:26:27;;;;;;;5.63;3.20;;;;;;;10.00;55.30;101938.97;5053786;28;20056;-46
2021/04/18 00:28:53;;;;;;;8.43;4.68;;;;;;;10.00;55.30;101930.66;5051646;28;20490;-45
2021/04/18 00:31:21;;;;;;;10.48;3.58;;;;;;;9.97;55.39;101936.81;5052903;28;20424;-47
2021/04/18 00:33:47;;;;;;;9.93;3.15;;;;;;;9.98;55.55;101936.50;5052822;28;20098;-45
2021/04/18 00:36:25;;;;;;;10.55;4.25;;;;;;;9.99;55.59;101935.38;5052417;28;20041;-47
2021/04/18 00:38:52;;;;;;;5.80;3.67;;;;;;;9.98;55.79;101936.50;5074555;28;20049;-46
2021/04/18 00:41:18;;;;;;;6.65;3.08;;;;;;;9.96;55.99;101937.94;5057790;28;20449;-46
2021/04/18 00:43:45;;;;;;;7.75;3.75;;;;;;;9.95;56.12;101926.09;5054963;28;20053;-45
2021/04/18 00:46:12;;;;;;;8.95;3.13;;;;;;;9.91;56.71;101925.06;5054692;28;20079;-45
2021/04/18 00:48:43;;;;;;;8.75;4.13;;;;;;;9.90;56.70;101928.94;5071904;28;20036;-47
2021/04/18 00:51:14;;;;;;;8.57;3.88;;;;;;;9.95;56.71;101926.09;5070721;28;20045;-47
2021/04/18 00:53:41;;;;;;;7.22;4.68;;;;;;;9.94;56.68;101918.91;5063936;28;20033;-46
2021/04/18 00:56:09;;;;;;;7.82;3.55;;;;;;;9.97;56.93;101929.34;5072319;28;20115;-46
2021/04/18 00:58:39;;;;;;;13.00;4.95;;;;;;;9.99;57.17;101917.97;5066500;28;20083;-47
2021/04/18 01:01:07;;;;;;;7.75;4.18;;;;;;;10.01;57.17;101918.44;5054502;28;20445;-49
2021/04/18 01:03:33;;;;;;;7.90;3.63;;;;;;;10.01;57.18;101908.22;5054826;28;20049;-48
2021/04/18 01:06:01;;;;;;;7.03;4.28;;;;;;;9.92;57.53;101901.81;5053000;28;20112;-50
2021/04/18 01:08:27;;;;;;;4.15;3.20;;;;;;;9.86;57.87;101900.28;5054301;28;20095;-46
2021/04/18 01:10:54;;;;;;;8.27;4.18;;;;;;;9.85;57.84;101892.31;5067214;28;20040;-46
2021/04/18 01:13:20;;;;;;;6.38;3.70;;;;;;;9.85;58.09;101886.78;5060945;28;20433;-46
2021/04/18 01:15:48;;;;;;;9.98;4.60;;;;;;;9.78;58.34;101893.56;5054077;28;20041;-45
2021/04/18 01:18:14;;;;;;;9.73;3.75;;;;;;;9.81;58.48;101886.56;5062204;28;20040;-48
2021/04/18 01:20:42;;;;;;;6.88;3.45;;;;;;;9.80;58.60;101882.97;5073356;28;20056;-45
2021/04/18 01:23:08;;;;;;;7.10;3.97;;;;;;;9.81;58.68;101892.09;5072979;28;20041;-47
2021/04/18 01:25:40;;;;;;;8.25;4.45;;;;;;;9.82;58.96;101882.69;5053068;28;20068;-45
2021/04/18 01:28:08;;;;;;;5.20;3.70;;;;;;;9.84;58.95;101885.94;5060066;28;20052;-45
2021/04/18 01:30:35;;;;;;;6.78;4.15;;;;;;;9.85;59.09;101887.56;5053729;28;20052;-45
2021/04/18 01:33:03;;;;;;;9.27;3.58;;;;;;;9.86;59.30;101877.34;5053794;28;20044;-45
2021/04/18 01:35:31;;;;;;;8.77;4.00;;;;;;;9.84;59.45;101877.66;5054250;28;20099;-46
2021/04/18 01:37:59;;;;;;;8.50;4.45;;;;;;;9.83;59.86;101876.00;5057427;28;20120;-47
2021/04/18 01:40:26;;;;;;;12.55;5.00;;;;;;;9.79;60.19;101878.56;5053420;28;20067;-45
2021/04/18 01:42:52;;;;;;;11.13;4.55;;;;;;;9.72;60.62;101871.84;5053988;28;20560;-45
2021/04/18 01:45:19;;;;;;;13.13;4.65;;;;;;;9.70;60.75;101874.09;5062784;28;20044;-45
2021/04/18 01:47:46;;;;;;;9.32;4.88;;;;;;;9.71;60.79;101875.75;5059857;28;20045;-47
2021/04/18 01:50:17;;;;;;;7.18;3.95;;;;;;;9.67;61.28;101863.66;5053800;28;20535;-48
2021/04/18 01:52:44;;;;;;;5.90;4.80;;;;;;;9.66;61.47;101865.59;5055611;28;20498;-47
2021/04/18 01:55:12;;;;;;;6.55;4.72;;;;;;;9.66;61.69;101867.56;5051026;28;20048;-46
2021/04/18 01:57:38;;;;;;;10.50;4.63;;;;;;;9.64;61.74;101858.75;5051000;28;20079;-47
2021/04/18 02:00:08;;;;;;;7.28;4.45;;;;;;;9.61;62.29;101854.66;5051317;28;20073;-45
2021/04/18 02:02:35;;;;;;;17.17;6.72;;;;;;;9.60;62.45;101866.06;5051232;28;20049;-47
2021/04/18 02:05:03;;;;;;;8.63;4.85;;;;;;;9.57;62.62;101847.31;5054397;28;20083;-49
2021/04/18 02:07:29;;;;;;;7.03;3.97;;;;;;;9.58;62.89;101866.34;5052956;28;20470;-51
2021/04/18 02:09:56;;;;;;;8.02;4.35;;;;;;;9.59;62.90;101861.63;5056783;28;20045;-50
2021/04/18 02:12:22;;;;;;;10.30;5.22;;;;;;;9.59;62.88;101856.09;5056510;28;20443;-46
2021/04/18 02:14:48;;;;;;;8.88;4.40;;;;;;;9.57;63.53;101858.38;5052893;28;20079;-45
2021/04/18 02:17:15;;;;;;;12.25;5.28;;;;;;;9.55;63.83;101864.22;5051463;28;20048;-46
2021/04/18 02:19:41;;;;;;;9.23;4.03;;;;;;;9.53;63.96;101857.38;5052558;28;20048;-47
2021/04/18 02:22:10;;;;;;;12.73;4.57;;;;;;;9.53;63.87;101855.41;5063885;28;20139;-47
2021/04/18 02:24:37;;;;;;;7.88;4.30;;;;;;;9.52;63.98;101850.19;5053399;28;20076;-49
2021/04/18 02:27:03;;;;;;;9.07;4.35;;;;;;;9.53;64.06;101854.63;5056384;28;20091;-46
2021/04/18 02:29:29;;;;;;;10.65;5.18;;;;;;;9.54;64.19;101859.00;5052430;28;20118;-47
2021/04/18 02:31:55;;;;;;;7.63;4.38;;;;;;;9.53;64.35;101843.56;5052966;28;20053;-46
2021/04/18 02:34:22;;;;;;;11.73;5.18;;;;;;;9.55;64.65;101846.81;5052159;28;20049;-52
2021/04/18 02:36:48;;;;;;;11.18;4.68;;;;;;;9.49;64.80;101850.81;5053106;28;20106;-49
2021/04/18 02:39:15;;;;;;;6.70;4.30;;;;;;;9.48;65.06;101855.53;5052587;28;20083;-49
2021/04/18 02:41:41;;;;;;;11.02;4.30;;;;;;;9.51;65.18;101848.56;5051312;28;20053;-49
2021/04/18 02:44:07;;;;;;;9.50;4.57;;;;;;;9.49;65.25;101856.34;5070254;28;20395;-48
2021/04/18 02:46:34;;;;;;;7.97;5.07;;;;;;;9.48;65.33;101855.53;5063402;28;20033;-47
2021/04/18 02:49:02;;;;;;;11.23;4.72;;;;;;;9.44;65.79;101850.94;5052668;28;20053;-50
2021/04/18 02:51:30;;;;;;;14.52;5.50;;;;;;;9.47;65.81;101853.09;5056013;28;20045;-49
2021/04/18 02:54:00;;;;;;;14.13;4.45;;;;;;;9.48;65.89;101849.16;5052232;28;20041;-48
2021/04/18 02:56:27;;;;;;;8.52;4.80;;;;;;;9.50;65.80;101852.47;5056561;28;20115;-49
2021/04/18 02:58:54;;;;;;;7.97;3.92;;;;;;;9.54;65.95;101842.41;5052191;28;20037;-52
2021/04/18 03:01:20;;;;;;;5.25;3.90;;;;;;;9.51;66.26;101849.38;5052682;28;20075;-50
2021/04/18 03:03:47;;;;;;;12.20;5.40;;;;;;;9.52;66.19;101850.19;5052158;28;20144;-48
2021/04/18 03:06:15;;;;;;;10.13;4.68;;;;;;;9.50;66.30;101855.22;5051518;28;20090;-49
2021/04/18 03:08:41;;;;;;;15.95;4.93;;;;;;;9.53;66.30;101857.38;5051748;28;20045;-46
2021/04/18 03:11:08;;;;;;;13.18;5.88;;;;;;;9.54;66.44;101856.22;5051856;28;20390;-50
2021/04/18 03:13:35;;;;;;;8.48;5.40;;;;;;;9.50;66.75;101860.75;5052069;28;20064;-51
2021/04/18 03:16:02;;;;;;;12.65;5.55;;;;;;;9.50;67.00;101858.00;5052119;28;20457;-49
2021/04/18 03:18:28;;;;;;;8.57;6.03;;;;;;;9.52;67.05;101861.25;5052154;28;20111;-47
2021/04/18 03:20:55;;;;;;;13.80;7.05;;;;;;;9.51;67.11;101843.84;5053350;28;20082;-50
2021/04/18 03:23:21;;;;;;;10.73;6.13;;;;;;;9.51;66.97;101843.03;5057820;28;20076;-49
2021/04/18 03:25:56;;;;;;;11.43;6.93;;;;;;;9.52;67.20;101844.66;5050011;28;20049;-51
2021/04/18 03:28:23;;;;;;;14.13;7.18;;;;;;;9.47;67.09;101853.09;5060180;28;20036;-49
2021/04/18 03:30:49;;;;;;;13.70;7.75;;;;;;;9.41;67.30;101851.56;5067779;28;20761;-48
2021/04/18 03:33:16;;;;;;;11.65;7.05;;;;;;;9.39;67.46;101845.53;5052406;28;20045;-49
2021/04/18 03:35:43;;;;;;;14.70;7.60;;;;;;;9.39;67.37;101846.34;5069963;28;20048;-46
2021/04/18 03:38:09;;;;;;;18.25;7.03;;;;;;;9.36;67.73;101844.19;5050990;28;20064;-46
2021/04/18 03:40:39;;;;;;;9.63;6.47;;;;;;;9.33;68.13;101836.53;5051207;28;20044;-47
2021/04/18 03:43:05;;;;;;;12.05;6.65;;;;;;;9.34;67.90;101840.13;5050885;28;20037;-47
2021/04/18 03:45:32;;;;;;;12.10;6.35;;;;;;;9.34;68.03;101838.16;5050799;28;20095;-46
2021/04/18 03:47:58;;;;;;;10.02;6.47;;;;;;;9.31;68.06;101843.50;5051484;28;20045;-48
2021/04/18 03:50:25;;;;;;;10.35;7.00;;;;;;;9.35;68.03;101841.72;5052041;28;20836;-51
2021/04/18 03:52:55;;;;;;;7.70;6.10;;;;;;;9.34;68.31;101842.88;5054499;28;20127;-48
2021/04/18 03:55:23;;;;;;;15.70;7.18;;;;;;;9.32;68.20;101839.63;5051048;28;20041;-52
2021/04/18 03:57:49;;;;;;;12.55;6.53;;;;;;;9.33;68.24;101841.22;5069306;28;20091;-52
2021/04/18 04:00:17;;;;;;;9.52;6.53;;;;;;;9.35;68.36;101838.97;5063864;28;20076;-48
2021/04/18 04:02:43;;;;;;;11.93;6.68;;;;;;;9.32;68.49;101834.09;5051223;28;20029;-50
2021/04/18 04:05:10;;;;;;;11.88;6.47;;;;;;;9.32;68.64;101836.84;5061842;28;21636;-50
2021/04/18 04:07:37;;;;;;;12.10;6.07;;;;;;;9.32;68.46;101825.78;5054010;28;20098;-50
2021/04/18 04:10:07;;;;;;;14.43;7.18;;;;;;;9.33;68.84;101824.66;5070945;28;20048;-49
2021/04/18 04:12:33;;;;;;;13.18;6.25;;;;;;;9.30;68.94;101825.25;5070917;28;20052;-47
2021/04/18 04:15:00;;;;;;;11.95;6.80;;;;;;;9.26;69.02;101816.78;5054584;28;20402;-49
2021/04/18 04:17:26;;;;;;;11.05;6.38;;;;;;;9.27;69.01;101825.88;5064994;28;20032;-49
2021/04/18 04:19:53;;;;;;;13.35;8.02;;;;;;;9.24;69.11;101821.78;5059612;28;20057;-49
2021/04/18 04:22:19;;;;;;;12.50;6.70;;;;;;;9.23;69.07;101819.34;5085516;28;20090;-46
2021/04/18 04:24:47;;;;;;;9.40;6.47;;;;;;;9.22;69.27;101814.94;5073182;28;20110;-51
2021/04/18 04:27:14;;;;;;;10.20;6.70;;;;;;;9.22;69.44;101809.41;5051148;28;20116;-48
2021/04/18 04:29:41;;;;;;;13.20;7.18;;;;;;;9.23;69.60;101809.13;5050897;28;20098;-54
2021/04/18 04:32:08;;;;;;;10.80;7.57;;;;;;;9.22;69.65;101806.66;5067360;28;20084;-50
2021/04/18 04:34:35;;;;;;;11.57;7.60;;;;;;;9.21;69.70;101816.09;5061467;28;20045;-48
2021/04/18 04:37:02;;;;;;;13.07;7.88;;;;;;;9.17;70.00;101808.41;5052526;28;20037;-48
2021/04/18 04:39:31;;;;;;;14.57;8.60;;;;;;;9.17;70.22;101804.81;5066032;28;20090;-50
2021/04/18 04:41:57;;;;;;;11.88;7.32;;;;;;;9.18;70.11;101806.47;5070766;28;20402;-48
2021/04/18 04:44:23;;;;;;;13.55;8.82;;;;;;;9.16;70.39;101801.25;5065488;28;20033;-51
2021/04/18 04:46:50;;;;;;;16.27;8.70;;;;;;;9.16;70.46;101798.47;5055798;28;20453;-48
2021/04/18 04:49:17;;;;;;;15.43;8.43;;;;;;;9.16;70.67;101798.47;5050507;28;20075;-47
2021/04/18 04:51:44;;;;;;;13.70;7.95;;;;;;;9.15;70.54;101796.88;5063760;28;20559;-47
2021/04/18 04:54:10;;;;;;;15.15;7.88;;;;;;;9.14;70.83;101795.22;5061673;28;20047;-50
2021/04/18 04:56:36;;;;;;;17.55;8.75;;;;;;;9.15;70.94;101796.88;5052917;28;20045;-47
2021/04/18 04:59:03;;;;;;;16.30;8.85;;;;;;;9.13;71.12;101787.25;5059777;28;20428;-50
2021/04/18 05:01:31;;;;;;;11.30;7.68;;;;;;;9.14;71.11;101794.41;5064727;28;20037;-48
2021/04/18 05:03:57;;;;;;;11.88;7.88;;;;;;;9.17;70.97;101789.06;5074390;28;20102;-49
2021/04/18 05:06:24;;;;;;;16.15;8.65;;;;;;;9.21;70.80;101782.94;5056912;28;20045;-48
2021/04/18 05:08:50;;;;;;;15.30;7.88;;;;;;;9.21;71.10;101789.28;5054160;28;20080;-50
2021/04/18 05:11:16;;;;;;;13.15;7.53;;;;;;;9.18;71.18;101785.19;5054024;28;20556;-47
2021/04/18 05:13:42;;;;;;;17.50;8.02;;;;;;;9.16;71.56;101792.97;5054052;28;20076;-51
2021/04/18 05:16:09;;;;;;;13.20;8.30;;;;;;;9.17;71.80;101793.78;5054671;28;20467;-49
2021/04/18 05:18:35;;;;;;;22.50;9.02;;;;;;;9.19;71.62;101808.91;5054333;28;20048;-49
2021/04/18 05:21:02;;;;;;;14.38;8.15;;;;;;;9.18;71.69;101807.31;5059537;28;20473;-46
2021/04/18 05:23:28;;;;;;;13.20;8.15;;;;;;;9.16;71.84;101798.47;5089411;28;20040;-48
2021/04/18 05:25:55;;;;;;;15.25;9.98;;;;;;;9.15;71.64;101799.63;5080786;28;20091;-52
2021/04/18 05:28:21;;;;;;;12.52;9.13;;;;;;;9.16;71.60;101798.47;5053866;28;20099;-47
2021/04/18 05:30:48;;;;;;;13.95;8.90;;;;;;;9.17;71.84;101794.59;5053406;28;20053;-48
2021/04/18 05:33:14;;;;;;;11.90;8.98;;;;;;;9.22;71.80;101795.59;5062923;28;20079;-48
2021/04/18 05:35:41;;;;;;;16.00;9.65;;;;;;;9.22;71.76;101796.44;5065987;28;20037;-51
2021/04/18 05:38:07;;;;;;;14.88;9.57;;;;;;;9.24;71.93;101799.69;5053633;28;20130;-51
2021/04/18 05:40:33;;;;;;;19.70;10.77;;;;;;;9.28;71.92;101794.38;5053448;28;20048;-47
2021/04/18 05:43:00;;;;;;;18.58;9.13;;;;;;;9.24;72.02;101799.69;5054572;28;20124;-48
2021/04/18 05:45:26;;;;;;;14.50;9.48;;;;;;;9.23;72.19;101802.78;5056961;28;20036;-51
2021/04/18 05:47:56;;;;;;;13.82;8.50;;;;;;;9.21;72.50;101810.56;5067812;28;20041;-51
2021/04/18 05:50:23;;;;;;;13.23;8.57;;;;;;;9.24;72.37;101805.22;5054045;28;20073;-49
2021/04/18 05:52:49;;;;;;;10.25;7.53;;;;;;;9.27;72.28;101804.59;5071613;28;20032;-49
2021/04/18 05:55:15;;;;;;;11.43;8.73;;;;;;;9.28;72.03;101797.13;5052810;28;20037;-46
2021/04/18 05:57:42;;;;;;;11.45;7.43;;;;;;;9.27;72.34;101798.25;5053170;28;20600;-50
2021/04/18 06:00:09;;;;;;;21.38;10.25;;;;;;;9.27;72.51;101809.31;5052821;28;20099;-48
2021/04/18 06:02:38;;;;;;;14.02;7.43;;;;;;;9.28;72.56;101805.41;5053048;28;20061;-49
2021/04/18 06:05:05;;;;;;;19.75;9.60;;;;;;;9.31;72.36;101804.81;5062581;28;20045;-49
2021/04/18 06:07:34;;;;;;;17.52;9.75;;;;;;;9.34;72.53;101804.19;5069097;28;20857;-47
2021/04/18 06:10:02;;;;;;;17.15;10.07;;;;;;;9.36;72.38;101810.22;5062870;28;20049;-49
2021/04/18 06:12:28;;;;;;;14.38;9.77;;;;;;;9.37;72.42;101809.88;5051781;28;20053;-51
2021/04/18 06:14:54;;;;;;;16.48;8.65;;;;;;;9.41;72.33;101807.31;5052586;28;20087;-48
2021/04/18 06:17:21;;;;;;;12.02;8.15;;;;;;;9.43;72.27;101813.34;5052953;28;20080;-49
2021/04/18 06:19:47;;;;;;;14.80;8.88;;;;;;;9.45;72.40;101820.22;5053333;28;20136;-51
2021/04/18 06:22:13;;;;;;;14.77;8.45;;;;;;;9.46;72.59;101809.97;5073710;28;20040;-51
2021/04/18 06:24:40;;;;;;;15.95;8.50;;;;;;;9.48;72.44;101805.75;5067200;28;20079;-48
2021/04/18 06:27:06;;;;;;;12.00;7.70;;;;;;;9.53;72.44;101807.63;5053046;28;20472;-52
2021/04/18 06:29:33;;;;;;;12.77;7.10;;;;;;;9.53;72.38;101816.69;5054779;28;20056;-50
2021/04/18 06:31:59;;;;;;;12.75;7.38;;;;;;;9.57;72.45;101819.66;5065596;28;20485;-49
2021/04/18 06:34:25;;;;;;;12.35;8.13;;;;;;;9.56;72.45;101818.84;5070395;28;20452;-47
2021/04/18 06:36:53;;;;;;;21.90;9.88;;;;;;;9.56;72.54;101818.03;5052063;28;20487;-47
2021/04/18 06:39:20;;;;;;;12.93;7.30;;;;;;;9.57;72.63;101820.50;5052335;28;20065;-49
2021/04/18 06:41:52;;;;;;;11.70;7.88;;;;;;;9.60;72.76;101819.88;5052513;28;20674;-47
2021/04/18 06:44:19;;;;;;;9.65;7.47;;;;;;;9.63;72.63;101821.19;5052772;28;20044;-48
2021/04/18 06:46:51;;;;;;;12.95;7.43;;;;;;;9.62;72.59;101822.31;5072330;28;20052;-49
2021/04/18 06:49:21;;;;;;;12.07;7.40;;;;;;;9.61;72.63;101829.00;5070352;28;20052;-47
2021/04/18 06:51:49;;;;;;;9.05;7.07;;;;;;;9.66;72.50;101826.09;5071263;28;20029;-47
2021/04/18 06:54:17;;;;;;;14.30;8.35;;;;;;;9.67;72.37;101825.78;5058111;28;20145;-49
2021/04/18 06:56:43;;;;;;;13.20;7.55;;;;;;;9.66;72.58;101826.09;5063724;28;20083;-47
2021/04/18 06:59:10;;;;;;;16.58;8.63;;;;;;;9.66;72.39;101823.34;5055054;28;20049;-49
2021/04/18 07:01:36;;;;;;;9.32;6.07;;;;;;;9.68;72.27;101818.31;5062942;28;20072;-50
2021/04/18 07:04:20;;;;;;;14.25;5.90;;;;;;;9.65;72.52;101816.16;5062268;28;20068;-48
2021/04/18 07:06:52;;;;;;;10.05;5.25;;;;;;;9.68;72.23;101815.53;5052696;28;20063;-50
2021/04/18 07:09:21;;;;;;;8.60;5.05;;;;;;;9.74;72.29;101815.09;5060959;28;20493;-49
2021/04/18 07:11:50;;;;;;;9.27;5.60;;;;;;;9.82;72.02;101819.06;5060149;28;20070;-49
2021/04/18 07:14:30;;;;;;;7.35;4.15;;;;;;;9.82;72.05;101830.13;5051991;28;20102;-51
2021/04/18 07:17:08;;;;;;;8.20;4.72;;;;;;;9.82;71.84;101822.63;5055010;28;20159;-47
2021/04/18 07:19:36;;;;;;;5.55;4.40;;;;;;;9.82;71.73;101817.09;5055968;28;20127;-48
2021/04/18 07:22:05;;;;;;;9.27;4.95;;;;;;;9.84;71.55;101819.56;5070619;28;20052;-47
2021/04/18 07:24:32;;;;;;;6.47;4.97;;;;;;;9.86;71.54;101817.31;5054269;28;20501;-50
2021/04/18 07:27:04;;;;;;;9.88;4.70;;;;;;;9.88;71.84;101825.28;5051531;28;20129;-49
2021/04/18 07:29:32;;;;;;;10.40;5.07;;;;;;;9.89;71.69;101819.44;5063608;28;20123;-46
2021/04/18 07:31:59;;;;;;;9.73;4.82;;;;;;;9.90;71.62;101821.06;5061360;28;20044;-47
2021/04/18 07:34:37;;;;;;;12.18;5.43;;;;;;;9.88;71.96;101815.03;5071767;28;20061;-46
2021/04/18 07:37:09;;;;;;;8.27;4.88;;;;;;;9.88;71.99;101820.56;5069208;28;20115;-46
2021/04/18 07:40:02;;;;;;;6.25;5.03;;;;;;;9.92;72.27;101816.06;5062116;28;20048;-47
2021/04/18 07:42:36;;;;;;;15.80;8.63;;;;;;;9.95;71.88;101826.50;5069372;28;20111;-46
2021/04/18 07:45:09;;;;;;;9.93;6.88;;;;;;;9.93;72.26;101823.19;5059467;28;20044;-47
2021/04/18 07:47:37;;;;;;;14.85;7.50;;;;;;;9.98;72.36;101830.56;5051731;28;20080;-51
2021/04/18 07:50:08;;;;;;;261.88;136.15;;;;;;;10.00;72.44;101831.91;5053835;28;20067;-50
2021/04/18 07:52:39;;;;;;;141.77;68.03;;;;;;;10.01;72.77;101819.69;5055750;28;20102;-50
2021/04/18 07:55:06;;;;;;;70.35;31.73;;;;;;;10.02;72.70;101826.03;5051111;28;20080;-47
2021/04/18 07:57:32;;;;;;;23.67;14.02;;;;;;;10.01;72.83;101825.22;5051438;28;20080;-47
2021/04/18 08:00:00;;;;;;;71.40;33.30;;;;;;;10.01;72.88;101825.22;5033455;28;20130;-50
2021/04/18 08:02:26;;;;;;;130.27;57.50;;;;;;;10.03;72.91;101828.50;5052281;28;20037;-47
2021/04/18 08:04:56;;;;;;;27.38;13.40;;;;;;;10.01;72.60;101825.22;5056320;28;20067;-46
2021/04/18 08:07:24;;;;;;;11.80;5.55;;;;;;;10.06;72.81;101838.91;5071410;28;20040;-46
2021/04/18 08:10:41;;;;;;;10.38;5.18;;;;;;;10.09;72.72;101827.22;5066402;28;20049;-46
2021/04/18 08:13:13;;;;;;;8.65;5.90;;;;;;;10.11;72.61;101830.47;5010685;28;20104;-47
2021/04/18 08:16:04;;;;;;;8.75;5.50;;;;;;;10.13;72.60;101821.91;5062353;28;20040;-47
2021/04/18 08:18:42;;;;;;;10.27;5.03;;;;;;;10.16;72.42;101826.81;5049403;28;20047;-49
2021/04/18 08:21:26;;;;;;;14.27;8.23;;;;;;;10.20;72.40;101819.50;5053225;28;20041;-47
2021/04/18 08:23:55;;;;;;;8.30;4.85;;;;;;;10.21;72.37;101813.66;5050949;28;20036;-50
2021/04/18 08:26:24;;;;;;;14.13;6.72;;;;;;;10.23;72.35;101819.69;5051178;28;20076;-48
2021/04/18 08:28:51;;;;;;;13.60;7.25;;;;;;;10.25;72.41;101814.66;5052486;28;20049;-50
2021/04/18 08:31:38;;;;;;;13.02;7.15;;;;;;;10.30;72.40;101813.69;5067851;28;20487;-48
2021/04/18 08:34:05;;;;;;;11.95;5.25;;;;;;;10.32;72.44;101812.28;5045965;28;20087;-49
2021/04/18 08:36:34;;;;;;;10.30;4.80;;;;;;;10.34;72.44;101810.00;5053839;28;20049;-48
2021/04/18 08:39:06;;;;;;;10.07;4.90;;;;;;;10.37;72.56;101817.66;5055026;28;20056;-53
2021/04/18 08:41:40;;;;;;;6.47;4.00;;;;;;;10.43;72.31;101815.59;5056751;28;20044;-50
2021/04/18 08:44:25;;;;;;;9.00;4.90;;;;;;;10.46;72.29;101822.44;5052491;28;20069;-49
2021/04/18 08:46:57;;;;;;;11.52;5.10;;;;;;;10.49;72.24;101816.25;5054557;28;20044;-49
2021/04/18 08:49:36;;;;;;;6.05;4.45;;;;;;;10.52;72.16;101812.84;5053578;28;20044;-53
2021/04/18 08:52:06;;;;;;;8.73;5.13;;;;;;;10.52;72.12;101823.91;5080581;28;20067;-51
2021/04/18 08:54:34;;;;;;;8.90;5.78;;;;;;;10.55;72.08;101813.03;5086662;28;20441;-48
2021/04/18 08:57:05;;;;;;;9.98;4.18;;;;;;;10.54;71.87;101821.66;5054196;28;20044;-46
2021/04/18 08:59:31;;;;;;;7.85;3.35;;;;;;;10.52;71.79;101819.19;5054183;28;20102;-49
2021/04/18 09:02:03;;;;;;;7.50;4.35;;;;;;;10.56;71.70;101813.84;5052772;28;20073;-46
2021/04/18 09:04:33;;;;;;;10.05;4.28;;;;;;;10.61;71.63;101816.47;5066930;28;20037;-49
2021/04/18 09:07:00;;;;;;;6.50;3.25;;;;;;;10.66;71.45;101819.09;5065632;28;20048;-49
2021/04/18 09:09:30;;;;;;;10.73;4.10;;;;;;;10.68;71.74;101811.28;5069876;28;20269;-48
2021/04/18 09:11:57;;;;;;;5.93;3.95;;;;;;;10.72;71.12;101812.28;5057370;28;20139;-49
2021/04/18 09:14:30;;;;;;;8.70;3.90;;;;;;;10.74;71.49;101815.53;5058008;28;20091;-48
2021/04/18 09:17:16;;;;;;;6.25;3.78;;;;;;;10.72;71.70;101817.81;5050151;28;20068;-49
2021/04/18 09:19:52;;;;;;;8.13;3.80;;;;;;;10.72;71.53;101817.81;5051264;28;20049;-49
2021/04/18 09:22:23;;;;;;;4.00;2.88;;;;;;;10.71;71.68;101822.53;5074282;28;20454;-50
2021/04/18 09:24:52;;;;;;;8.70;4.60;;;;;;;10.71;71.82;101811.47;5066198;28;20463;-51
2021/04/18 09:27:23;;;;;;;11.48;7.55;;;;;;;10.76;71.66;101808.56;5071232;28;20048;-47
2021/04/18 09:29:53;;;;;;;9.00;5.67;;;;;;;10.81;71.61;101807.56;5058264;28;20048;-52
2021/04/18 09:32:24;;;;;;;7.68;4.75;;;;;;;10.85;71.52;101814.13;5056626;28;20301;-50
2021/04/18 09:34:51;;;;;;;7.00;4.35;;;;;;;10.93;71.45;101814.13;5063540;28;20163;-50
2021/04/18 09:37:26;;;;;;;5.28;4.00;;;;;;;10.96;71.45;101812.69;5052037;28;20080;-49
2021/04/18 09:39:58;;;;;;;6.70;3.70;;;;;;;11.04;71.42;101817.41;5050996;28;20049;-49
2021/04/18 09:42:26;;;;;;;10.43;5.15;;;;;;;11.11;71.42;101808.63;5051475;28;20053;-47
2021/04/18 09:45:06;;;;;;;9.48;4.53;;;;;;;11.15;71.37;101804.91;5049591;28;20127;-46
2021/04/18 09:47:32;;;;;;;10.52;5.47;;;;;;;11.25;71.03;101812.91;5052088;28;20051;-48
2021/04/18 09:50:02;;;;;;;8.93;4.47;;;;;;;11.33;71.19;101805.75;5051304;28;20088;-50
2021/04/18 09:52:38;;;;;;;6.07;3.53;;;;;;;11.41;71.10;101810.50;5087231;28;20940;-48
2021/04/18 09:55:11;;;;;;;17.65;8.48;;;;;;;11.43;70.74;101810.97;5061955;28;20102;-51
2021/04/18 09:57:59;;;;;;;38.08;17.42;;;;;;;11.43;70.68;101811.81;5057129;28;20052;-54
2021/04/18 10:00:36;;;;;;;9.18;4.40;;;;;;;11.46;70.67;101802.81;5068773;28;20121;-53
2021/04/18 10:03:13;;;;;;;8.32;4.18;;;;;;;11.53;70.93;101805.09;5067451;28;20068;-54
2021/04/18 10:05:43;;;;;;;8.95;4.70;;;;;;;11.62;70.41;101800.38;5057573;28;20491;-51
2021/04/18 10:08:18;;;;;;;6.03;4.13;;;;;;;11.72;70.77;101807.59;5051426;28;20413;-49
2021/04/18 10:10:49;;;;;;;9.50;3.65;;;;;;;11.82;70.46;101807.25;5059894;28;20095;-51
2021/04/18 10:13:34;;;;;;;7.22;3.83;;;;;;;11.92;70.21;101812.47;5046963;28;20130;-53
2021/04/18 10:16:25;;;;;;;8.27;3.97;;;;;;;11.99;70.25;101807.25;5071098;28;20409;-52
2021/04/18 10:19:11;;;;;;;8.27;3.55;;;;;;;12.05;70.07;101803.94;5053903;28;20040;-49
2021/04/18 10:21:39;;;;;;;6.18;3.47;;;;;;;12.14;69.85;101801.97;5055926;28;20421;-50
2021/04/18 10:24:41;;;;;;;5.88;3.15;;;;;;;12.26;69.29;101797.72;5072983;28;20048;-54
2021/04/18 10:27:10;;;;;;;5.65;3.42;;;;;;;12.31;69.60;101801.09;5051117;28;20136;-52
2021/04/18 10:29:38;;;;;;;6.78;3.33;;;;;;;12.39;69.51;101799.47;5055241;28;20040;-49
2021/04/18 10:32:05;;;;;;;5.95;3.35;;;;;;;12.37;69.30;101797.00;5052281;28;20075;-46
2021/04/18 10:34:32;;;;;;;10.00;3.67;;;;;;;12.40;69.24;101801.09;5053764;28;20398;-47
2021/04/18 10:37:00;;;;;;;7.50;4.38;;;;;;;12.45;69.18;101795.34;5065468;28;20480;-51
2021/04/18 10:39:27;;;;;;;9.85;3.45;;;;;;;12.45;69.14;101793.38;5061123;28;20044;-46
2021/04/18 10:41:53;;;;;;;9.30;4.05;;;;;;;12.40;68.79;101793.56;5049108;28;20045;-46
2021/04/18 10:44:20;;;;;;;8.88;3.97;;;;;;;12.40;68.97;101790.78;5051627;28;20135;-48
2021/04/18 10:46:53;;;;;;;9.32;3.70;;;;;;;12.45;69.19;101792.56;5069142;28;20135;-50
2021/04/18 10:49:21;;;;;;;12.80;4.55;;;;;;;12.47;68.99;101791.09;5061305;28;20515;-48
2021/04/18 10:51:48;;;;;;;11.48;4.45;;;;;;;12.44;68.95;101789.00;5071079;28;20051;-46
2021/04/18 10:54:16;;;;;;;8.20;4.10;;;;;;;12.39;68.85;101797.47;5082878;28;20070;-48
2021/04/18 10:56:50;;;;;;;6.90;3.00;;;;;;;12.37;68.47;101780.34;5043979;28;20483;-47
2021/04/18 10:59:19;;;;;;;5.43;4.03;;;;;;;12.39;68.46;101785.59;5048548;28;20130;-44
2021/04/18 11:01:45;;;;;;;13.75;3.83;;;;;;;12.44;68.23;101790.97;5061555;28;20132;-47
2021/04/18 11:04:18;;;;;;;4.63;2.70;;;;;;;12.43;68.21;101794.88;5048841;28;20039;-46
2021/04/18 11:06:44;;;;;;;4.60;3.35;;;;;;;12.38;68.11;101776.44;5050828;28;20072;-48
2021/04/18 11:09:11;;;;;;;12.13;4.10;;;;;;;12.34;68.22;101778.22;5049453;28;20127;-49
2021/04/18 11:11:37;;;;;;;10.88;5.38;;;;;;;12.37;68.14;101790.63;5049608;28;20553;-48
2021/04/18 11:14:05;;;;;;;5.07;3.40;;;;;;;12.36;68.21;101784.28;5053063;28;20079;-50
2021/04/18 11:16:32;;;;;;;7.75;3.75;;;;;;;12.36;67.91;101781.50;5057957;28;20083;-50
2021/04/18 11:18:59;;;;;;;7.35;4.05;;;;;;;12.33;67.88;101789.69;5049425;28;20123;-51
2021/04/18 11:21:26;;;;;;;5.85;3.13;;;;;;;12.27;67.71;101774.34;5049448;28;20056;-49
2021/04/18 11:23:54;;;;;;;5.20;2.97;;;;;;;12.24;67.23;101775.81;5068228;28;20040;-47
2021/04/18 11:26:21;;;;;;;9.85;3.50;;;;;;;12.23;67.27;101779.75;5060244;28;20656;-48
2021/04/18 11:28:48;;;;;;;6.22;3.25;;;;;;;12.24;67.49;101778.59;5049901;28;20044;-46
2021/04/18 11:31:16;;;;;;;5.70;2.75;;;;;;;12.27;67.29;101783.50;5061076;28;20045;-44
2021/04/18 11:33:42;;;;;;;7.60;3.13;;;;;;;12.30;67.33;101790.34;5052654;28;20127;-50
2021/04/18 11:36:10;;;;;;;9.05;3.90;;;;;;;12.34;67.45;101786.56;5066001;28;20040;-48